Airfield :
LOGIN :

Register | Disclaimer

   EN    FR    IT 

 










Legend :    VFR   Marginal VFR   IFR   Intensive IFR   Very Intensive IFR
Visi :
Ceiling :
>= 8 km
>= 3000ft
5 to 8 km
1000 to 3000 ft
1500m to 5 km
500 to 1000 ft
800 to 1500m
200 to 500 ft
< 800m
< 200 ft
Symbols :   Thunderstorms  Fog  Heavy snow  Heavy precipitations  Wind > 20 kt
SIGMETs :     Misc.  Thunderstorms  Icing  Turbulence  Mountain Waves  Volcanic Ashes






- Airport Elevation : 174 ft
- IATA code : RYG


ENRY - Moss , Rygge

CURRENT METAR :
  • 171720Z AUTO 06003KT 9999NDV BKN017/// 02/01 Q1016

EXPIRED METARs :
  • 171650Z AUTO 05003KT 020V080 9999NDV OVC016/// 02/01 Q1016
  • 171620Z AUTO 13005KT 9999NDV OVC016/// 02/01 Q1016
  • 171550Z AUTO 12004KT 9999NDV OVC019/// 02/00 Q1015
  • 171520Z AUTO 13004KT 9999NDV OVC020/// 03/02 Q1015
  • 171450Z AUTO 14003KT 9999NDV BKN021/// 03/02 Q1015

TAF AMD TAF ENRY
Valid from the 17 at 16:00 until the 18 at 12:00 UTC


171621Z 1716/1812 VRB05KT 9999 OVC015
PROB40 1716/1806 0300 FZFG VV001
BECMG 1800/1802 02010KT
TEMPO 1806/1812 RA



MET'MAP, your aeronautical weather chart ! - Copyright ORBIFLY December 2007 - Disclaimer

ORBIFLY MET'MAP TEAM :

Programming & Development : Alexandra Zaïnal
Concept & Development : Baudouin d'Aumeries
Co-Development & Prog : Marc-Olivier Méhu
Technical & hardware support : Manuel Goepfert

Contact : metmap@orbifly.com




SOURCES & CREDITS :

   NOAA